Time;durP1;ratioP1;P1;durP2;ratioP2;P2;SDS_P1;SDS_P2;PMS_P1;PMS_P2;Temp;Humidity;BMP_temperature;BMP_pressure;BME280_temperature;BME280_humidity;BME280_pressure;Samples;Min_cycle;Max_cycle;Signal;HPM_P1;HPM_P2
2022/09/22 00:01:38;;;;;;;9.82;5.22;;;6.60;1.00;;;;;;4995183;28;20378;-76
2022/09/22 00:04:07;;;;;;;9.35;5.20;;;6.90;1.00;;;;;;4995232;28;20068;-76
2022/09/22 00:06:42;;;;;;;10.57;5.22;;;7.10;1.00;;;;;;4996402;28;20533;-77
2022/09/22 00:09:11;;;;;;;7.85;4.80;;;6.70;1.00;;;;;;4995190;28;20381;-76
2022/09/22 00:11:41;;;;;;;8.15;4.88;;;6.50;1.00;;;;;;4995202;28;20049;-76
2022/09/22 00:14:10;;;;;;;9.13;4.82;;;6.40;1.00;;;;;;4986861;28;20025;-76
2022/09/22 00:16:47;;;;;;;9.85;5.43;;;6.40;1.00;;;;;;4997019;28;20027;-77
2022/09/22 00:19:22;;;;;;;10.70;5.43;;;6.30;1.00;;;;;;5008471;28;20088;-77
2022/09/22 00:21:48;;;;;;;10.93;4.90;;;6.10;1.00;;;;;;4994799;28;20355;-76
2022/09/22 00:24:16;;;;;;;9.60;5.32;;;6.10;1.00;;;;;;4994660;28;20022;-76
2022/09/22 00:26:42;;;;;;;9.65;5.70;;;6.20;1.00;;;;;;4994728;28;20043;-76
2022/09/22 00:29:08;;;;;;;12.05;5.95;;;6.20;1.00;;;;;;5006917;28;20018;-77
2022/09/22 00:31:39;;;;;;;10.35;5.97;;;6.30;1.00;;;;;;5009575;22;20041;-78
2022/09/22 00:34:06;;;;;;;11.05;6.47;;;6.30;1.00;;;;;;5020957;28;20029;-79
2022/09/22 00:36:32;;;;;;;11.95;6.10;;;6.30;1.00;;;;;;5031545;28;20026;-79
2022/09/22 00:38:58;;;;;;;13.38;6.15;;;6.40;1.00;;;;;;5026285;28;20025;-78
2022/09/22 00:41:27;;;;;;;12.80;6.10;;;6.40;1.00;;;;;;5016741;28;20022;-78
2022/09/22 00:44:20;;;;;;;10.13;6.05;;;6.40;1.00;;;;;;5014563;28;20022;-78
2022/09/22 00:46:58;;;;;;;11.15;6.32;;;6.40;1.00;;;;;;5006969;28;20030;-78
2022/09/22 00:49:46;;;;;;;10.27;6.00;;;6.50;1.00;;;;;;5004458;28;20046;-78
2022/09/22 00:52:16;;;;;;;11.73;6.28;;;6.50;1.00;;;;;;4999630;28;20427;-78
2022/09/22 00:54:41;;;;;;;11.77;6.28;;;6.30;1.00;;;;;;5014988;28;20034;-79
2022/09/22 00:57:15;;;;;;;12.35;6.20;;;6.40;1.00;;;;;;5013110;28;20028;-78
2022/09/22 00:59:43;;;;;;;8.50;5.55;;;6.40;1.00;;;;;;5006828;28;20038;-79
2022/09/22 01:02:09;;;;;;;11.25;5.93;;;6.40;1.00;;;;;;5019549;28;20017;-78
2022/09/22 01:04:35;;;;;;;11.48;6.07;;;6.30;1.00;;;;;;5020600;28;20030;-79
2022/09/22 01:07:41;;;;;;;9.23;5.70;;;6.30;1.00;;;;;;5022733;28;20021;-78
2022/09/22 01:10:08;;;;;;;12.93;6.35;;;6.40;1.00;;;;;;5011681;28;20021;-78
2022/09/22 01:12:52;;;;;;;11.88;6.20;;;6.60;1.00;;;;;;4996472;28;20023;-79
2022/09/22 01:15:44;;;;;;;10.40;5.95;;;6.50;1.00;;;;;;5005928;28;20393;-78
2022/09/22 01:18:26;;;;;;;9.95;6.20;;;6.40;1.00;;;;;;5005052;28;20034;-78
2022/09/22 01:21:09;;;;;;;12.27;5.95;;;6.50;1.00;;;;;;4994587;28;20049;-78
2022/09/22 01:24:08;;;;;;;10.15;5.95;;;6.50;1.00;;;;;;4993339;28;20149;-79
2022/09/22 01:26:46;;;;;;;12.60;6.28;;;6.50;1.00;;;;;;5010582;28;20026;-79
2022/09/22 01:29:32;;;;;;;12.85;6.25;;;6.60;1.00;;;;;;5025270;28;20029;-79
2022/09/22 01:32:16;;;;;;;10.77;5.25;;;6.60;1.00;;;;;;4989852;28;20045;-79
2022/09/22 01:34:57;;;;;;;9.32;5.60;;;6.50;1.00;;;;;;5017272;28;20090;-79
2022/09/22 01:37:53;;;;;;;7.53;5.60;;;6.60;1.00;;;;;;5013371;28;20037;-79
2022/09/22 01:40:41;;;;;;;9.07;5.45;;;6.70;1.00;;;;;;5007065;28;20034;-78
2022/09/22 01:43:15;;;;;;;9.27;5.43;;;6.40;1.00;;;;;;5027924;28;20022;-79
2022/09/22 01:45:45;;;;;;;10.10;5.63;;;6.50;1.00;;;;;;5014741;28;20030;-79
2022/09/22 01:48:19;;;;;;;7.97;5.95;;;6.60;1.00;;;;;;5012800;28;20037;-78
2022/09/22 01:50:51;;;;;;;11.15;6.00;;;6.50;1.00;;;;;;5003851;28;20428;-78
2022/09/22 01:53:21;;;;;;;15.82;6.30;;;6.50;1.00;;;;;;5012139;28;20032;-78
2022/09/22 01:55:52;;;;;;;15.40;6.78;;;6.50;1.00;;;;;;5013910;28;20026;-79
2022/09/22 01:58:29;;;;;;;12.85;6.82;;;6.40;1.00;;;;;;5013647;28;20030;-79
2022/09/22 02:01:02;;;;;;;9.90;6.18;;;6.40;1.00;;;;;;5014887;28;20113;-79
2022/09/22 02:03:46;;;;;;;7.93;5.40;;;6.40;1.00;;;;;;5017438;28;20061;-78
2022/09/22 02:06:19;;;;;;;9.55;5.75;;;6.40;1.00;;;;;;5017861;28;20033;-79
2022/09/22 02:09:02;;;;;;;12.73;6.93;;;6.40;1.00;;;;;;5005285;28;20027;-79
2022/09/22 02:11:28;;;;;;;10.25;7.00;;;6.90;1.00;;;;;;5006273;28;20485;-78
2022/09/22 02:13:54;;;;;;;15.13;8.52;;;6.90;1.00;;;;;;5030650;28;20017;-79
2022/09/22 02:16:22;;;;;;;12.55;7.40;;;7.00;1.00;;;;;;5017661;28;20023;-78
2022/09/22 02:18:48;;;;;;;12.40;6.50;;;6.90;1.00;;;;;;5017665;28;20026;-78
2022/09/22 02:21:15;;;;;;;10.02;6.30;;;6.90;1.00;;;;;;5017625;28;20029;-79
2022/09/22 02:23:43;;;;;;;12.52;6.28;;;7.00;1.00;;;;;;5016359;28;20033;-79
2022/09/22 02:26:10;;;;;;;9.38;6.50;;;7.00;1.00;;;;;;5017441;28;20025;-78
2022/09/22 02:28:39;;;;;;;12.48;6.15;;;6.90;1.00;;;;;;5016396;28;20473;-79
2022/09/22 02:31:08;;;;;;;8.80;5.53;;;6.90;1.00;;;;;;5037294;28;20036;-79
2022/09/22 02:33:36;;;;;;;9.85;6.70;;;6.90;1.00;;;;;;5025015;28;20057;-79
2022/09/22 02:36:26;;;;;;;7.70;5.50;;;6.90;1.00;;;;;;5018407;28;20141;-79
2022/09/22 02:39:03;;;;;;;8.15;5.47;;;6.70;1.00;;;;;;5035583;28;20025;-79
2022/09/22 02:41:40;;;;;;;8.57;5.40;;;6.50;1.00;;;;;;5023483;28;20504;-79
2022/09/22 02:44:18;;;;;;;9.13;5.60;;;6.20;9.80;;;;;;5020765;28;20030;-79
2022/09/22 02:46:57;;;;;;;10.95;6.28;;;6.20;6.40;;;;;;5014866;28;20033;-79
2022/09/22 02:49:24;;;;;;;11.52;5.93;;;6.40;3.60;;;;;;5009535;28;20025;-78
2022/09/22 02:51:51;;;;;;;9.45;6.18;;;6.30;6.50;;;;;;5034440;28;20060;-79
2022/09/22 02:54:17;;;;;;;9.73;6.38;;;6.30;8.10;;;;;;5035857;28;20026;-78
2022/09/22 02:56:43;;;;;;;11.45;6.57;;;6.30;6.00;;;;;;5034883;28;20079;-79
2022/09/22 02:59:09;;;;;;;9.80;6.47;;;6.30;6.80;;;;;;5036198;28;20419;-79
2022/09/22 03:01:35;;;;;;;11.85;6.55;;;6.20;10.20;;;;;;5017152;28;20473;-79
2022/09/22 03:04:07;;;;;;;9.43;6.25;;;6.30;7.10;;;;;;5016990;28;20017;-78
2022/09/22 03:06:33;;;;;;;9.73;6.20;;;6.30;4.10;;;;;;5020450;28;20385;-79
2022/09/22 03:08:59;;;;;;;13.70;7.07;;;6.20;9.70;;;;;;5015687;28;20030;-79
2022/09/22 03:11:26;;;;;;;11.27;6.88;;;6.30;4.10;;;;;;5023530;28;20521;-79
2022/09/22 03:13:52;;;;;;;9.15;6.85;;;6.30;3.40;;;;;;5035655;28;20109;-79
2022/09/22 03:16:18;;;;;;;6.63;5.85;;;6.20;9.80;;;;;;5017697;28;20014;-79
2022/09/22 03:18:43;;;;;;;9.38;6.47;;;6.20;10.80;;;;;;5019321;28;20022;-78
2022/09/22 03:21:09;;;;;;;9.57;6.70;;;6.20;9.90;;;;;;5036900;28;20526;-79
2022/09/22 03:23:34;;;;;;;11.35;6.45;;;6.20;8.10;;;;;;5020090;28;20431;-79
2022/09/22 03:26:00;;;;;;;8.82;6.32;;;6.10;7.80;;;;;;4997150;28;20628;-78
2022/09/22 03:28:26;;;;;;;10.90;6.90;;;6.20;7.00;;;;;;5014081;28;20025;-79
2022/09/22 03:31:15;;;;;;;10.50;6.10;;;6.10;7.10;;;;;;5027022;28;20048;-78
2022/09/22 03:33:41;;;;;;;9.18;6.43;;;6.20;4.10;;;;;;5017029;28;20571;-79
2022/09/22 03:36:07;;;;;;;9.25;5.97;;;6.00;7.80;;;;;;5018743;28;20065;-79
2022/09/22 03:38:32;;;;;;;8.27;6.05;;;6.00;7.40;;;;;;5011955;28;20041;-79
2022/09/22 03:40:59;;;;;;;11.90;6.88;;;6.00;7.50;;;;;;5018218;28;20034;-79
2022/09/22 03:43:24;;;;;;;8.35;6.32;;;6.30;1.00;;;;;;5019925;28;20025;-79
2022/09/22 03:45:58;;;;;;;8.45;5.82;;;6.10;7.20;;;;;;5026853;28;20052;-79
2022/09/22 03:48:25;;;;;;;10.40;5.85;;;6.00;11.30;;;;;;5020035;28;20029;-79
2022/09/22 03:50:51;;;;;;;8.55;5.97;;;6.00;8.20;;;;;;5017092;28;20030;-78
2022/09/22 03:53:17;;;;;;;9.18;5.95;;;6.00;5.50;;;;;;5016766;28;20028;-78
2022/09/22 03:55:43;;;;;;;10.85;5.72;;;6.00;6.50;;;;;;5016522;28;20416;-79
2022/09/22 03:58:08;;;;;;;8.07;6.15;;;5.90;6.00;;;;;;5014344;28;21138;-79
2022/09/22 04:00:34;;;;;;;7.28;5.85;;;5.70;7.80;;;;;;4997028;28;20094;-79
2022/09/22 04:02:59;;;;;;;10.57;6.00;;;5.70;7.60;;;;;;5013790;28;20029;-78
2022/09/22 04:05:25;;;;;;;7.90;5.53;;;5.80;1.00;;;;;;5017000;28;20037;-78
2022/09/22 04:07:51;;;;;;;9.85;6.30;;;5.70;3.30;;;;;;5015812;28;20033;-79
2022/09/22 04:10:17;;;;;;;11.88;6.13;;;5.80;2.40;;;;;;5016225;28;20544;-79
2022/09/22 04:12:42;;;;;;;12.20;6.68;;;5.70;4.60;;;;;;5015138;28;20026;-77
2022/09/22 04:15:09;;;;;;;8.40;5.97;;;5.80;1.70;;;;;;5022461;28;20026;-78
2022/09/22 04:17:35;;;;;;;8.85;5.90;;;5.70;4.40;;;;;;5035627;28;20472;-78
2022/09/22 04:20:02;;;;;;;8.90;6.53;;;5.60;5.20;;;;;;5036951;28;20037;-78
2022/09/22 04:22:28;;;;;;;9.02;5.70;;;5.60;3.40;;;;;;5022056;28;20044;-78
2022/09/22 04:24:54;;;;;;;9.23;6.03;;;5.60;1.70;;;;;;5014655;28;20053;-78
2022/09/22 04:27:19;;;;;;;10.73;5.90;;;5.60;1.90;;;;;;5007860;28;20042;-78
2022/09/22 04:29:45;;;;;;;10.10;6.30;;;5.70;1.70;;;;;;4998641;28;20542;-79
2022/09/22 04:32:10;;;;;;;8.98;6.40;;;5.60;1.50;;;;;;5021266;28;20050;-79
2022/09/22 04:34:36;;;;;;;9.57;6.15;;;5.70;1.00;;;;;;5027873;28;20423;-79
2022/09/22 04:37:02;;;;;;;8.30;6.10;;;5.70;1.00;;;;;;5030717;28;20416;-79
2022/09/22 04:39:27;;;;;;;9.65;5.82;;;5.70;1.00;;;;;;5023516;28;20038;-79
2022/09/22 04:41:54;;;;;;;10.90;6.22;;;5.70;2.20;;;;;;5021389;28;20025;-78
2022/09/22 04:44:19;;;;;;;10.02;6.78;;;5.70;1.20;;;;;;5020619;28;20030;-79
2022/09/22 04:46:45;;;;;;;11.35;6.25;;;5.70;1.00;;;;;;5021113;28;20098;-79
2022/09/22 04:49:12;;;;;;;9.25;6.10;;;5.90;1.60;;;;;;5008795;28;20029;-79
2022/09/22 04:51:38;;;;;;;7.22;5.80;;;5.90;3.10;;;;;;5017856;28;20046;-79
2022/09/22 04:54:04;;;;;;;11.40;6.18;;;5.90;5.00;;;;;;5016523;28;20049;-77
2022/09/22 04:56:30;;;;;;;11.40;6.13;;;5.90;3.50;;;;;;5032840;28;20021;-78
2022/09/22 04:58:55;;;;;;;9.38;5.57;;;5.70;7.10;;;;;;5040571;28;20026;-78
2022/09/22 05:01:21;;;;;;;8.52;6.07;;;5.70;4.80;;;;;;5024585;28;20014;-78
2022/09/22 05:03:47;;;;;;;10.57;6.45;;;5.80;1.00;;;;;;5018888;28;20435;-78
2022/09/22 05:06:12;;;;;;;9.07;6.47;;;5.70;2.40;;;;;;5024943;28;20507;-79
2022/09/22 05:08:38;;;;;;;11.10;6.20;;;5.60;6.10;;;;;;5013746;28;20037;-78
2022/09/22 05:11:07;;;;;;;9.10;6.22;;;5.70;2.00;;;;;;5019392;28;20093;-78
2022/09/22 05:13:32;;;;;;;11.57;6.80;;;5.60;5.80;;;;;;5021366;28;20061;-78
2022/09/22 05:15:58;;;;;;;9.80;7.22;;;5.60;3.40;;;;;;5030315;28;20029;-78
2022/09/22 05:18:23;;;;;;;8.77;6.47;;;5.60;2.70;;;;;;5030209;28;20025;-78
2022/09/22 05:20:49;;;;;;;8.10;5.95;;;5.80;2.00;;;;;;5029441;28;20033;-78
2022/09/22 05:23:15;;;;;;;11.60;6.82;;;5.80;2.70;;;;;;5025802;28;20234;-78
2022/09/22 05:25:41;;;;;;;9.50;6.32;;;5.80;3.50;;;;;;5032154;28;20029;-78
2022/09/22 05:28:06;;;;;;;9.60;6.00;;;5.70;3.00;;;;;;5017371;28;20033;-78
2022/09/22 05:30:33;;;;;;;10.07;6.53;;;5.70;1.50;;;;;;5017046;28;20051;-78
2022/09/22 05:32:58;;;;;;;9.43;5.82;;;5.90;1.00;;;;;;5029022;28;20068;-78
2022/09/22 05:35:24;;;;;;;9.60;5.95;;;5.80;1.00;;;;;;5028730;28;20010;-78
2022/09/22 05:37:51;;;;;;;11.52;6.22;;;5.80;1.20;;;;;;5032489;28;20093;-78
2022/09/22 05:40:18;;;;;;;8.60;6.20;;;5.80;1.00;;;;;;5029102;28;20058;-78
2022/09/22 05:42:46;;;;;;;8.85;6.05;;;5.90;1.00;;;;;;5030363;28;20105;-78
2022/09/22 05:45:12;;;;;;;8.88;6.18;;;6.00;1.00;;;;;;5032832;28;20034;-78
2022/09/22 05:47:38;;;;;;;8.00;5.43;;;6.00;1.00;;;;;;5030800;28;20026;-78
2022/09/22 05:50:06;;;;;;;7.50;6.20;;;6.10;1.00;;;;;;5023325;28;20038;-78
2022/09/22 05:52:32;;;;;;;7.68;5.70;;;6.10;1.00;;;;;;5020794;28;20018;-78
2022/09/22 05:54:57;;;;;;;9.40;6.10;;;6.30;1.00;;;;;;5030643;28;20392;-78
2022/09/22 05:57:26;;;;;;;10.18;5.88;;;6.20;1.00;;;;;;5021611;28;20532;-78
2022/09/22 05:59:54;;;;;;;10.52;6.22;;;6.30;1.00;;;;;;5034372;28;20044;-78
2022/09/22 06:02:22;;;;;;;13.85;6.25;;;6.40;1.00;;;;;;5036300;28;20064;-78
2022/09/22 06:04:47;;;;;;;8.70;6.72;;;6.50;1.00;;;;;;5027870;28;20021;-78
2022/09/22 06:07:13;;;;;;;11.55;5.70;;;6.60;1.00;;;;;;5021636;28;20392;-78
2022/09/22 06:09:39;;;;;;;12.35;6.43;;;6.60;1.00;;;;;;5032093;28;20485;-78
2022/09/22 06:12:07;;;;;;;8.10;6.10;;;6.70;1.00;;;;;;5017060;28;20501;-78
2022/09/22 06:14:35;;;;;;;9.32;5.82;;;6.90;1.00;;;;;;5021570;28;20025;-78
2022/09/22 06:17:01;;;;;;;9.43;6.07;;;6.90;1.00;;;;;;5033447;28;20018;-78
2022/09/22 06:19:28;;;;;;;9.02;5.72;;;7.00;1.00;;;;;;5023020;28;20084;-78
2022/09/22 06:21:53;;;;;;;10.50;6.28;;;7.10;1.00;;;;;;5022243;28;20022;-78
2022/09/22 06:24:19;;;;;;;7.60;6.07;;;7.20;1.00;;;;;;5017623;28;20022;-78
2022/09/22 06:26:45;;;;;;;14.27;6.75;;;7.20;1.00;;;;;;5010712;28;20022;-78
2022/09/22 06:29:10;;;;;;;10.77;6.32;;;7.40;1.00;;;;;;5022706;28;20086;-78
2022/09/22 06:31:36;;;;;;;13.52;7.10;;;7.50;1.00;;;;;;5031004;28;20078;-79
2022/09/22 06:34:02;;;;;;;8.60;6.75;;;7.60;1.00;;;;;;5027885;28;20029;-78
2022/09/22 06:36:30;;;;;;;9.63;6.70;;;7.80;1.00;;;;;;5035394;28;20045;-78
2022/09/22 06:39:00;;;;;;;9.80;6.15;;;7.90;1.00;;;;;;5029131;28;20022;-78
2022/09/22 06:41:27;;;;;;;11.80;6.50;;;8.00;1.00;;;;;;5030268;28;20037;-78
2022/09/22 06:43:56;;;;;;;10.18;7.65;;;8.10;1.00;;;;;;5033081;28;20038;-78
2022/09/22 06:46:25;;;;;;;9.95;7.13;;;8.30;1.00;;;;;;5037119;28;20087;-78
2022/09/22 06:48:56;;;;;;;12.85;7.25;;;8.50;1.00;;;;;;5028224;28;20018;-78
2022/09/22 06:51:27;;;;;;;10.32;7.10;;;8.70;1.00;;;;;;5038690;28;20253;-78
2022/09/22 06:53:56;;;;;;;9.77;6.53;;;8.90;1.00;;;;;;5015733;28;20105;-78
2022/09/22 06:56:24;;;;;;;9.18;6.95;;;9.10;1.00;;;;;;5039524;28;20021;-78
2022/09/22 06:58:51;;;;;;;13.65;8.00;;;9.40;1.00;;;;;;5028850;28;20029;-78
2022/09/22 07:01:18;;;;;;;13.10;9.07;;;10.90;1.00;;;;;;5032426;28;20539;-78
2022/09/22 07:03:44;;;;;;;10.50;7.80;;;16.30;99.90;;;;;;5023610;28;20037;-78
2022/09/22 07:06:16;;;;;;;10.77;7.28;;;18.90;99.90;;;;;;5024938;28;20026;-79
2022/09/22 07:08:43;;;;;;;9.57;6.05;;;21.20;99.90;;;;;;5023403;28;20049;-79
2022/09/22 07:11:09;;;;;;;6.40;4.95;;;23.10;61.90;;;;;;5030866;28;20052;-79
2022/09/22 07:13:40;;;;;;;6.00;4.50;;;24.80;20.60;;;;;;5028671;28;20076;-78
2022/09/22 07:16:15;;;;;;;7.00;4.32;;;26.40;1.00;;;;;;5032414;28;20022;-80
2022/09/22 07:18:43;;;;;;;7.28;4.10;;;27.90;1.00;;;;;;5033225;28;20048;-80
2022/09/22 07:21:11;;;;;;;7.00;4.22;;;28.90;1.00;;;;;;5029408;28;20038;-79
2022/09/22 07:23:37;;;;;;;7.70;4.07;;;29.90;1.00;;;;;;5026513;28;20024;-78
2022/09/22 07:26:05;;;;;;;7.38;4.00;;;31.00;1.00;;;;;;5022124;28;20072;-79
2022/09/22 07:28:32;;;;;;;7.13;3.72;;;31.40;1.00;;;;;;5052468;28;20026;-81
2022/09/22 07:31:04;;;;;;;5.82;3.90;;;30.80;1.00;;;;;;5018627;28;20033;-81
2022/09/22 07:33:31;;;;;;;4.13;3.40;;;31.60;1.00;;;;;;5017244;28;20042;-81
2022/09/22 07:36:03;;;;;;;5.25;3.47;;;31.40;1.00;;;;;;5017363;28;20022;-81
2022/09/22 07:38:31;;;;;;;4.60;3.22;;;32.20;1.00;;;;;;5010964;28;20022;-81
2022/09/22 07:40:59;;;;;;;5.38;3.50;;;32.60;1.00;;;;;;5009489;28;20041;-81
2022/09/22 07:43:26;;;;;;;6.43;3.78;;;32.90;1.00;;;;;;5011686;28;20022;-81
2022/09/22 07:45:54;;;;;;;4.55;3.15;;;33.20;1.00;;;;;;5011025;28;20684;-80
2022/09/22 07:48:36;;;;;;;5.80;3.13;;;34.40;1.00;;;;;;5008888;28;20036;-81
2022/09/22 07:51:07;;;;;;;8.13;3.70;;;35.70;1.00;;;;;;5015106;28;20100;-80
2022/09/22 07:53:38;;;;;;;4.72;3.10;;;36.30;1.00;;;;;;5016632;28;20022;-81
2022/09/22 07:56:39;;;;;;;5.82;3.22;;;36.70;1.00;;;;;;5017126;28;20074;-81
2022/09/22 07:59:07;;;;;;;4.80;3.28;;;36.40;1.00;;;;;;5016460;28;20029;-81
2022/09/22 08:01:34;;;;;;;3.15;2.70;;;37.10;1.00;;;;;;5016595;28;20448;-81
2022/09/22 08:04:00;;;;;;;3.20;2.90;;;37.20;1.00;;;;;;5014406;28;20022;-81
2022/09/22 08:06:26;;;;;;;5.45;2.88;;;37.40;1.00;;;;;;5015459;28;20030;-81
2022/09/22 08:08:55;;;;;;;3.65;2.60;;;37.30;1.00;;;;;;5023224;28;20026;-81
2022/09/22 08:11:32;;;;;;;4.53;2.50;;;36.60;1.00;;;;;;5035391;28;20144;-80
2022/09/22 08:14:03;;;;;;;5.45;2.53;;;36.40;1.00;;;;;;5006635;28;20025;-81
2022/09/22 08:16:32;;;;;;;3.63;2.58;;;35.60;1.00;;;;;;5015766;28;20026;-81
2022/09/22 08:19:01;;;;;;;5.57;2.80;;;36.40;1.00;;;;;;5015215;28;20037;-81
2022/09/22 08:21:34;;;;;;;2.60;2.33;;;37.00;1.00;;;;;;5009646;28;20030;-81
2022/09/22 08:24:00;;;;;;;3.50;2.55;;;37.90;1.00;;;;;;5021855;28;20013;-81
2022/09/22 08:26:26;;;;;;;5.22;2.42;;;38.70;1.00;;;;;;5028118;28;20097;-79
2022/09/22 08:28:53;;;;;;;4.72;2.80;;;38.40;1.00;;;;;;5026409;28;20045;-79
2022/09/22 08:31:20;;;;;;;4.00;2.58;;;38.00;1.00;;;;;;5011524;28;20611;-79
2022/09/22 08:33:47;;;;;;;4.07;2.88;;;37.70;1.00;;;;;;5030329;28;20041;-79
2022/09/22 08:36:45;;;;;;;4.97;3.17;;;38.60;1.00;;;;;;5016280;28;20014;-79
2022/09/22 08:39:11;;;;;;;3.33;2.90;;;39.40;1.00;;;;;;5027211;28;20014;-82
2022/09/22 08:41:45;;;;;;;5.85;3.05;;;39.00;1.00;;;;;;5028109;28;20033;-80
2022/09/22 08:44:24;;;;;;;5.40;3.20;;;39.00;1.00;;;;;;5032860;28;20024;-80
2022/09/22 08:46:53;;;;;;;5.05;3.20;;;39.10;1.00;;;;;;5015067;28;20412;-80
2022/09/22 08:52:46;;;;;;;3.40;3.10;;;39.50;1.00;;;;;;5020435;28;20116;-80
2022/09/22 08:55:23;;;;;;;4.03;3.10;;;39.20;1.00;;;;;;5034784;28;20045;-80
2022/09/22 08:57:58;;;;;;;5.10;3.28;;;38.80;1.00;;;;;;5036909;28;20049;-80
2022/09/22 09:00:31;;;;;;;5.22;3.78;;;38.90;1.00;;;;;;5013054;28;20088;-80
2022/09/22 09:03:30;;;;;;;7.05;3.42;;;38.80;1.00;;;;;;5014575;28;20022;-80
2022/09/22 09:06:11;;;;;;;3.30;2.90;;;38.20;1.00;;;;;;5014395;28;20432;-80
2022/09/22 09:08:54;;;;;;;5.45;3.08;;;39.60;1.00;;;;;;4995141;28;20022;-80
2022/09/22 09:11:44;;;;;;;5.20;3.38;;;39.50;1.00;;;;;;4994117;28;20101;-80
2022/09/22 09:14:12;;;;;;;4.72;3.70;;;39.40;1.00;;;;;;5007186;28;20088;-80
2022/09/22 09:17:02;;;;;;;6.20;4.03;;;38.40;1.00;;;;;;5013196;28;20372;-81
2022/09/22 09:19:36;;;;;;;7.00;4.20;;;38.70;1.00;;;;;;5030644;28;20021;-80
2022/09/22 09:22:14;;;;;;;5.65;4.05;;;38.10;1.00;;;;;;5033733;28;20476;-80
2022/09/22 09:24:47;;;;;;;4.35;3.88;;;38.60;1.00;;;;;;5031288;28;20032;-79
2022/09/22 09:27:20;;;;;;;4.55;4.13;;;37.80;1.00;;;;;;5013868;28;20030;-80
2022/09/22 09:30:00;;;;;;;6.40;3.95;;;37.60;1.00;;;;;;5014160;28;20030;-80
2022/09/22 09:32:32;;;;;;;7.40;4.50;;;38.60;1.00;;;;;;5013332;28;20648;-81
2022/09/22 09:34:58;;;;;;;7.20;4.55;;;37.00;1.00;;;;;;5014153;28;20029;-81
2022/09/22 09:37:25;;;;;;;6.88;4.80;;;39.10;1.00;;;;;;5014115;28;20149;-80
2022/09/22 09:39:51;;;;;;;5.00;4.25;;;38.80;1.00;;;;;;5013530;28;20675;-80
2022/09/22 09:42:24;;;;;;;6.70;5.30;;;38.80;1.00;;;;;;5013727;28;20109;-80
2022/09/22 09:44:52;;;;;;;5.57;5.05;;;38.10;1.00;;;;;;5012542;28;20018;-80
2022/09/22 09:47:18;;;;;;;8.13;4.82;;;36.10;1.00;;;;;;5013736;28;20372;-80
2022/09/22 09:49:44;;;;;;;5.78;4.80;;;37.50;1.00;;;;;;5013408;28;20030;-80
2022/09/22 09:52:15;;;;;;;6.10;4.57;;;39.00;1.00;;;;;;5012640;28;20361;-82
2022/09/22 09:54:45;;;;;;;5.13;4.50;;;39.00;1.00;;;;;;5013664;28;20444;-81
2022/09/22 09:57:18;;;;;;;6.40;4.97;;;38.50;1.00;;;;;;5014035;28;20049;-82
2022/09/22 10:00:46;;;;;;;8.85;5.75;;;38.50;1.00;;;;;;5013612;28;20083;-80
2022/09/22 10:03:01;;;;;;;6.93;5.57;;;38.60;1.00;;;;;;5008073;28;20046;-82
2022/09/22 10:05:27;;;;;;;7.65;6.20;;;38.50;1.00;;;;;;5013622;28;20073;-80
2022/09/22 10:07:57;;;;;;;5.93;5.40;;;38.80;1.00;;;;;;5016696;28;20026;-80
2022/09/22 10:10:34;;;;;;;8.52;6.60;;;38.90;1.00;;;;;;5048624;28;20029;-80
2022/09/22 10:13:02;;;;;;;7.40;6.28;;;37.80;1.00;;;;;;5030053;28;20026;-80
2022/09/22 10:15:29;;;;;;;8.25;5.85;;;36.90;1.00;;;;;;5013355;28;20097;-80
2022/09/22 10:17:55;;;;;;;7.63;5.65;;;36.40;1.00;;;;;;5013343;28;20022;-80
2022/09/22 10:20:22;;;;;;;7.43;5.90;;;34.90;1.00;;;;;;5000488;28;20038;-80
2022/09/22 10:22:48;;;;;;;8.40;5.68;;;33.60;1.00;;;;;;4995966;28;20027;-79
2022/09/22 10:25:26;;;;;;;5.88;4.97;;;33.00;1.00;;;;;;5006199;28;20029;-79
2022/09/22 10:28:08;;;;;;;5.72;5.15;;;32.10;1.00;;;;;;5017191;28;20022;-80
2022/09/22 10:30:37;;;;;;;8.48;5.82;;;30.70;1.00;;;;;;5017076;28;20033;-80
2022/09/22 10:33:16;;;;;;;6.10;5.43;;;29.60;1.00;;;;;;5016878;28;20045;-81
2022/09/22 10:35:52;;;;;;;8.48;6.28;;;29.20;1.00;;;;;;4997769;28;20065;-80
2022/09/22 10:38:23;;;;;;;6.72;5.35;;;28.40;1.00;;;;;;5013719;28;20057;-80
2022/09/22 10:40:55;;;;;;;6.88;5.50;;;27.50;1.00;;;;;;5016750;28;20080;-81
2022/09/22 10:43:41;;;;;;;6.85;5.40;;;26.90;1.00;;;;;;5016806;28;20025;-80
2022/09/22 10:46:22;;;;;;;7.13;5.40;;;25.70;1.00;;;;;;5006392;28;20112;-80
2022/09/22 10:49:16;;;;;;;7.15;5.13;;;25.70;1.00;;;;;;5015397;28;20092;-79
2022/09/22 10:51:53;;;;;;;8.90;5.50;;;25.20;1.00;;;;;;5009414;28;20038;-80
2022/09/22 10:54:40;;;;;;;7.00;5.20;;;25.00;1.00;;;;;;5015742;28;20028;-79
2022/09/22 10:57:23;;;;;;;8.63;6.57;;;24.80;1.00;;;;;;5004202;28;20022;-79
2022/09/22 11:00:08;;;;;;;8.77;5.45;;;24.70;1.00;;;;;;5014866;28;20029;-79
2022/09/22 11:03:11;;;;;;;7.78;5.40;;;24.60;1.00;;;;;;5016254;28;20037;-79
2022/09/22 11:14:34;;;;;;;5.32;4.70;;;23.80;1.00;;;;;;5016426;28;20037;-79
2022/09/22 11:20:24;;;;;;;7.90;5.38;;;23.10;1.00;;;;;;5015815;28;20045;-79
2022/09/22 11:23:11;;;;;;;7.28;5.20;;;23.30;1.00;;;;;;5016066;28;20108;-79
2022/09/22 11:26:06;;;;;;;7.82;5.20;;;23.30;1.00;;;;;;5029970;28;20025;-80
2022/09/22 11:28:59;;;;;;;7.25;4.63;;;23.10;1.00;;;;;;5022925;28;20054;-79
2022/09/22 11:31:30;;;;;;;7.40;4.45;;;23.30;1.00;;;;;;5016108;28;20022;-79
2022/09/22 11:34:06;;;;;;;7.13;4.90;;;23.40;1.00;;;;;;5006699;28;20046;-79
2022/09/22 11:37:31;;;;;;;5.80;4.85;;;22.80;1.00;;;;;;5004059;28;20430;-80
2022/09/22 11:40:14;;;;;;;6.38;4.72;;;22.80;1.00;;;;;;4995946;28;20034;-79
2022/09/22 11:43:04;;;;;;;8.40;5.72;;;22.40;1.00;;;;;;4996535;28;20593;-79
2022/09/22 11:46:13;;;;;;;6.65;5.30;;;22.40;1.00;;;;;;5001289;28;20084;-79
2022/09/22 11:48:53;;;;;;;10.48;6.00;;;22.80;1.00;;;;;;5015823;28;20018;-80
2022/09/22 11:51:40;;;;;;;9.85;5.93;;;22.60;1.00;;;;;;5015514;28;20014;-79
2022/09/22 11:54:15;;;;;;;7.47;5.60;;;23.10;1.00;;;;;;4996158;28;20389;-79
2022/09/22 11:56:51;;;;;;;6.32;5.20;;;23.00;1.00;;;;;;4996102;28;20475;-80
2022/09/22 11:59:43;;;;;;;7.35;4.78;;;23.00;1.00;;;;;;5018844;28;20037;-80
2022/09/22 12:02:29;;;;;;;7.30;4.18;;;22.60;1.00;;;;;;4995748;28;20347;-80
2022/09/22 12:05:06;;;;;;;7.38;4.32;;;22.90;1.00;;;;;;5003182;28;20046;-80
2022/09/22 12:07:44;;;;;;;6.50;4.18;;;22.80;1.00;;;;;;5015611;28;20080;-80
2022/09/22 12:10:46;;;;;;;4.22;3.70;;;22.60;1.00;;;;;;5020411;28;20034;-80
2022/09/22 12:13:21;;;;;;;8.90;4.35;;;23.00;1.00;;;;;;5013644;28;20065;-80
2022/09/22 12:16:17;;;;;;;7.72;4.30;;;22.50;1.00;;;;;;5015033;28;20037;-80
2022/09/22 12:18:55;;;;;;;7.90;4.00;;;22.60;1.00;;;;;;5006492;28;20029;-80
2022/09/22 12:21:26;;;;;;;7.05;4.40;;;22.70;1.00;;;;;;5015209;28;20025;-80
2022/09/22 12:23:53;;;;;;;5.30;4.55;;;22.90;1.00;;;;;;5015045;28;20397;-80
2022/09/22 12:26:31;;;;;;;5.43;3.70;;;23.00;1.00;;;;;;5001518;28;20020;-80
2022/09/22 12:28:59;;;;;;;6.25;4.35;;;23.20;1.00;;;;;;5014871;28;20074;-80
2022/09/22 12:31:41;;;;;;;5.95;3.90;;;22.60;1.00;;;;;;5014723;28;20030;-80
2022/09/22 12:34:23;;;;;;;5.82;3.90;;;22.70;1.00;;;;;;5014509;28;20061;-81
2022/09/22 12:36:59;;;;;;;6.40;2.92;;;22.50;1.00;;;;;;5002419;28;20026;-81
2022/09/22 12:39:28;;;;;;;5.68;2.88;;;22.50;1.00;;;;;;5014148;28;20026;-80
2022/09/22 12:42:17;;;;;;;8.48;4.00;;;22.40;1.00;;;;;;5015182;28;20030;-80
2022/09/22 12:44:49;;;;;;;5.13;3.30;;;22.40;1.00;;;;;;5014371;28;20503;-80
2022/09/22 12:47:34;;;;;;;7.95;3.80;;;22.70;1.00;;;;;;4994502;28;20473;-80
2022/09/22 12:50:05;;;;;;;8.60;4.10;;;22.60;1.00;;;;;;4995382;28;20018;-80
2022/09/22 12:52:56;;;;;;;5.80;3.50;;;22.60;1.00;;;;;;4995138;28;20037;-80
2022/09/22 12:55:27;;;;;;;4.88;3.25;;;22.70;1.00;;;;;;4995038;28;20034;-80
2022/09/22 12:57:58;;;;;;;4.88;2.90;;;22.50;1.00;;;;;;5014312;28;20018;-80
2022/09/22 13:00:28;;;;;;;5.53;2.70;;;22.80;1.00;;;;;;4998407;28;20362;-79
2022/09/22 13:02:55;;;;;;;;;;;22.90;1.00;;;;;;4995596;28;20026;-80
2022/09/22 13:05:23;;;;;;;3.70;2.70;;;22.90;1.00;;;;;;4995114;28;19973;-80
2022/09/22 13:07:51;;;;;;;5.25;2.90;;;22.80;1.00;;;;;;4993454;28;20362;-80
2022/09/22 13:10:20;;;;;;;6.32;3.83;;;22.20;1.00;;;;;;5001083;28;20152;-80
2022/09/22 13:13:04;;;;;;;6.57;2.90;;;22.30;1.00;;;;;;5013955;28;20029;-80
2022/09/22 13:15:55;;;;;;;6.40;3.42;;;22.40;1.00;;;;;;5014104;28;20108;-79
2022/09/22 13:18:38;;;;;;;5.95;2.90;;;22.30;1.00;;;;;;4989346;28;20113;-79
2022/09/22 13:21:12;;;;;;;5.28;2.42;;;21.90;1.00;;;;;;5000782;28;20476;-78
2022/09/22 13:23:52;;;;;;;3.80;2.30;;;21.90;1.00;;;;;;5023893;28;20026;-78
2022/09/22 13:26:22;;;;;;;4.78;2.42;;;22.10;1.00;;;;;;5013999;28;20045;-78
2022/09/22 13:29:10;;;;;;;5.10;2.17;;;21.90;1.00;;;;;;5013800;28;20396;-79
2022/09/22 13:31:41;;;;;;;4.07;2.20;;;22.20;1.00;;;;;;5012692;28;20029;-79
2022/09/22 13:34:29;;;;;;;4.70;2.28;;;22.10;1.00;;;;;;5003830;28;20054;-79
2022/09/22 13:37:18;;;;;;;3.85;1.98;;;21.10;1.00;;;;;;4997199;28;20095;-80
2022/09/22 13:39:46;;;;;;;5.35;2.08;;;21.60;1.00;;;;;;5013889;28;20033;-79
2022/09/22 13:42:13;;;;;;;3.38;2.28;;;21.80;1.00;;;;;;5013889;28;20052;-78
2022/09/22 13:44:42;;;;;;;4.82;2.65;;;21.70;1.00;;;;;;5012500;28;20658;-79